Bookmark and Share
Track history (hours):
 

Nanticoke

More information available from US FCC via Universal Licensing System and Coast Guard Vessel Documentation Center.

Last reported at 2014-Apr-18 17:33 UTC. Time now 2014-Apr-18 18:11 UTC.
Position N 40°40' W 074°02'.

Length 34 m; draft 4.7 m.

Type: Towing. MMSI: 367023480.

NotesDate/timePositionNaut miles runAvg speedWind from/ knotsBaromVisibWave heightAir tempDewpointWater temp
2014-Apr-18 17:33N 40°40' W 074°02'0 0.0
2014-Apr-18 16:33N 40°40' W 074°02'0 0.1
2014-Apr-18 15:33N 40°40' W 074°02'0 0.0
2014-Apr-18 14:33N 40°40' W 074°02'0 0.1
2014-Apr-18 13:33N 40°40' W 074°02'0 0.1
2014-Apr-18 12:33N 40°40' W 074°02'0 0.0
2014-Apr-18 11:33N 40°40' W 074°02'0 0.0
2014-Apr-18 10:34N 40°40' W 074°02'0 0.0
2014-Apr-18 09:33N 40°40' W 074°02'0 0.0
2014-Apr-18 08:33N 40°40' W 074°02'0 0.0
2014-Apr-18 07:33N 40°40' W 074°02'0 0.0
2014-Apr-18 06:33N 40°40' W 074°02'0 0.1
2014-Apr-18 05:33N 40°40' W 074°02'0 0.0
2014-Apr-18 04:33N 40°40' W 074°02'0 0.2
2014-Apr-18 03:34N 40°40' W 074°02'2 2.2
2014-Apr-18 02:33N 40°39' W 074°05'0 0.0
2014-Apr-18 01:33N 40°39' W 074°05'4 3.8
2014-Apr-18 00:33N 40°40' W 074°00'0 0.0
2014-Apr-17 23:33N 40°40' W 074°00'0 0.0
2014-Apr-17 22:33N 40°40' W 074°00'0 0.0
2014-Apr-17 21:33N 40°40' W 074°00'0 0.0
2014-Apr-17 20:33N 40°40' W 074°00'0 0.0
2014-Apr-17 19:33N 40°40' W 074°00'0 0.0
2014-Apr-17 18:33N 40°40' W 074°00'0 0.0
2014-Apr-17 17:33N 40°40' W 074°00'0 0.0
2014-Apr-17 16:33N 40°40' W 074°00'0 0.0
2014-Apr-17 15:33N 40°40' W 074°00'0 0.0
2014-Apr-17 14:33N 40°40' W 074°00'2 1.8
2014-Apr-17 13:33N 40°39' W 074°02'3 2.7
2014-Apr-17 12:33N 40°39' W 074°05'5 5.3
2014-Apr-17 11:33N 40°38' W 074°12'0 0.1
2014-Apr-17 10:29N 40°38' W 074°12'0 0.0
2014-Apr-17 09:33N 40°38' W 074°12'0 0.0
2014-Apr-17 08:33N 40°38' W 074°12'0 0.0
2014-Apr-17 07:28N 40°38' W 074°12'0 0.0
2014-Apr-17 06:28N 40°38' W 074°12'0 0.0
2014-Apr-17 05:30N 40°38' W 074°12'0 0.0
2014-Apr-17 04:31N 40°38' W 074°12'0 0.0
2014-Apr-17 03:32N 40°38' W 074°12'0 0.0
2014-Apr-17 02:33N 40°38' W 074°12'0 0.0
2014-Apr-17 01:29N 40°38' W 074°12'0 0.0
2014-Apr-17 00:29N 40°38' W 074°12'0 0.0
2014-Apr-16 23:33N 40°38' W 074°12'0 0.0
2014-Apr-16 22:33N 40°38' W 074°12'0 0.0
2014-Apr-16 21:33N 40°38' W 074°12'4 4.4
2014-Apr-16 20:33N 40°39' W 074°07'3 3.1
2014-Apr-16 19:33N 40°39' W 074°03'0 0.0
2014-Apr-16 18:33N 40°39' W 074°03'0 0.0
2014-Apr-16 17:33N 40°39' W 074°03'0 0.1
2014-Apr-16 16:33N 40°39' W 074°03'0 0.0
2014-Apr-16 15:33N 40°39' W 074°03'0 0.0
2014-Apr-16 14:33N 40°39' W 074°03'0 0.0
2014-Apr-16 13:33N 40°39' W 074°03'0 0.0
2014-Apr-16 12:33N 40°39' W 074°03'0 0.0
2014-Apr-16 11:33N 40°39' W 074°03'0 0.0
2014-Apr-16 10:33N 40°39' W 074°03'0 0.4
2014-Apr-16 09:33N 40°39' W 074°03'2 1.7
2014-Apr-16 08:33N 40°39' W 074°05'0 0.0
2014-Apr-16 07:33N 40°39' W 074°05'0 0.0
2014-Apr-16 06:33N 40°39' W 074°05'0 0.0
2014-Apr-16 05:33N 40°39' W 074°05'0 0.0
2014-Apr-16 04:33N 40°39' W 074°05'0 0.0
2014-Apr-16 03:33N 40°39' W 074°05'0 0.0
2014-Apr-16 02:33N 40°39' W 074°05'0 0.1
2014-Apr-16 01:33N 40°39' W 074°05'0 0.0
2014-Apr-16 00:33N 40°39' W 074°05'0 0.0
2014-Apr-15 23:33N 40°39' W 074°05'0 0.0
2014-Apr-15 22:33N 40°39' W 074°05'0 0.0
2014-Apr-15 21:33N 40°39' W 074°05'0 0.0
2014-Apr-15 20:33N 40°39' W 074°05'4 3.6
2014-Apr-15 19:33N 40°40' W 074°00'0 0.0
2014-Apr-15 18:33N 40°40' W 074°00'0 0.0
2014-Apr-15 17:33N 40°40' W 074°00'0 0.0
2014-Apr-15 16:33N 40°40' W 074°00'0 0.0
2014-Apr-15 15:33N 40°40' W 074°00'0 0.0
2014-Apr-15 14:33N 40°40' W 074°00'0 0.0
2014-Apr-15 12:34N 40°40' W 074°00'0 0.0
2014-Apr-15 11:34N 40°40' W 074°00'0 0.0
2014-Apr-15 10:34N 40°40' W 074°00'0 0.0
2014-Apr-15 09:34N 40°40' W 074°00'0 0.0
2014-Apr-15 08:34N 40°40' W 074°00'0 0.3
2014-Apr-15 07:34N 40°40' W 074°00'0 0.0
2014-Apr-15 06:34N 40°40' W 074°00'0 0.0
2014-Apr-15 05:34N 40°40' W 074°00'4 2.0
2014-Apr-15 03:34N 40°39' W 074°05'2 1.7
2014-Apr-15 02:34N 40°39' W 074°07'4 4.0
2014-Apr-15 01:34N 40°38' W 074°12'2 0.1
2014-Apr-14 09:30N 40°35' W 074°12'2 1.1
2014-Apr-14 07:33N 40°38' W 074°12'6 5.7
2014-Apr-14 06:33N 40°39' W 074°05'0 0.1
2014-Apr-14 05:33N 40°39' W 074°05'4 0.5
2014-Apr-13 22:33N 40°40' W 074°00'0 0.0
2014-Apr-13 21:33N 40°40' W 074°00'0 0.0
2014-Apr-13 20:33N 40°40' W 074°00'0 0.0
2014-Apr-13 19:33N 40°40' W 074°00'0 0.0
2014-Apr-13 18:33N 40°40' W 074°00'0 0.0
2014-Apr-13 17:33N 40°40' W 074°00'0 0.0
2014-Apr-13 16:33N 40°40' W 074°00'0 0.0
2014-Apr-13 15:33N 40°40' W 074°00'0 0.0
2014-Apr-13 14:33N 40°40' W 074°00'0 0.0
2014-Apr-13 13:33N 40°40' W 074°00'0 0.0
2014-Apr-13 12:33N 40°40' W 074°00'2 2.2
2014-Apr-13 11:33N 40°39' W 074°03'1 1.3
2014-Apr-13 10:33N 40°40' W 074°02'0 0.0
2014-Apr-13 09:33N 40°40' W 074°02'0 0.1
2014-Apr-13 08:33N 40°40' W 074°02'0 0.0
2014-Apr-13 07:33N 40°40' W 074°02'0 0.0
2014-Apr-13 06:33N 40°40' W 074°02'0 0.0
2014-Apr-13 05:33N 40°40' W 074°02'0 0.0
2014-Apr-13 04:33N 40°40' W 074°02'0 0.0
2014-Apr-13 03:33N 40°40' W 074°02'0 0.0
2014-Apr-13 02:33N 40°40' W 074°02'0 0.2
2014-Apr-13 01:33N 40°40' W 074°02'0 0.0
2014-Apr-13 00:33N 40°40' W 074°02'0 0.0
2014-Apr-12 23:33N 40°40' W 074°02'0 0.0
2014-Apr-12 22:33N 40°40' W 074°02'0 0.1
2014-Apr-12 21:33N 40°40' W 074°02'0 0.2
2014-Apr-12 20:33N 40°40' W 074°02'0 0.0
2014-Apr-12 19:33N 40°40' W 074°02'0 0.0
2014-Apr-12 18:33N 40°40' W 074°02'0 0.0
2014-Apr-12 17:33N 40°40' W 074°02'0 0.0
2014-Apr-12 16:33N 40°40' W 074°02'0 0.0
2014-Apr-12 15:33N 40°40' W 074°02'0 0.0
2014-Apr-12 14:33N 40°40' W 074°02'0 0.1
2014-Apr-12 13:33N 40°40' W 074°02'0 0.2
2014-Apr-12 12:33N 40°40' W 074°02'0 0.0
2014-Apr-12 11:33N 40°40' W 074°02'0 0.0
2014-Apr-12 10:33N 40°40' W 074°02'0 0.2
2014-Apr-12 09:33N 40°40' W 074°02'0 0.1
2014-Apr-12 08:33N 40°40' W 074°02'0 0.0
2014-Apr-12 07:33N 40°40' W 074°02'0 0.0
2014-Apr-12 06:33N 40°40' W 074°02'0 0.1
2014-Apr-12 05:33N 40°40' W 074°02'0 0.0
2014-Apr-12 04:33N 40°40' W 074°02'0 0.0
2014-Apr-12 03:33N 40°40' W 074°02'0 0.0
2014-Apr-12 02:33N 40°40' W 074°02'0 0.1
2014-Apr-12 01:33N 40°40' W 074°02'0 0.2
2014-Apr-12 00:33N 40°40' W 074°02'0 0.0
2014-Apr-11 23:33N 40°40' W 074°02'0 0.0
2014-Apr-11 22:33N 40°40' W 074°02'0 0.0
2014-Apr-11 21:33N 40°40' W 074°02'0 0.2
2014-Apr-11 20:33N 40°40' W 074°02'0 0.1
2014-Apr-11 19:33N 40°40' W 074°02'0 0.0
2014-Apr-11 18:33N 40°40' W 074°02'0 0.0
2014-Apr-11 17:33N 40°40' W 074°02'0 0.0
2014-Apr-11 16:33N 40°40' W 074°02'0 0.0
2014-Apr-11 15:33N 40°40' W 074°02'0 0.0
2014-Apr-11 14:33N 40°40' W 074°02'0 0.0
2014-Apr-11 13:33N 40°40' W 074°02'1 1.1
2014-Apr-11 12:33N 40°39' W 074°03'7 5.5
2014-Apr-11 11:18N 40°38' W 074°12'2 0.1
2014-Apr-10 17:15N 40°36' W 074°12'2 2.0
2014-Apr-10 16:30N 40°38' W 074°12'4 4.2
2014-Apr-10 15:33N 40°39' W 074°07'0 0.4
2014-Apr-10 14:33N 40°39' W 074°06'5 4.7
2014-Apr-10 13:33N 40°40' W 074°00'0 0.0
2014-Apr-10 12:33N 40°40' W 074°00'0 0.0
2014-Apr-10 11:33N 40°40' W 074°00'0 0.0
2014-Apr-10 10:33N 40°40' W 074°00'0 0.0
2014-Apr-10 09:33N 40°40' W 074°00'0 0.0
2014-Apr-10 08:33N 40°40' W 074°00'0 0.0
2014-Apr-10 07:33N 40°40' W 074°00'0 0.0
2014-Apr-10 06:33N 40°40' W 074°00'0 0.0
2014-Apr-10 05:33N 40°40' W 074°00'0 0.0
2014-Apr-10 04:33N 40°40' W 074°00'4 4.2
2014-Apr-10 03:34N 40°39' W 074°06'1 0.8
2014-Apr-10 02:33N 40°39' W 074°05'2 2.0
2014-Apr-10 01:33N 40°40' W 074°02'0 0.0
2014-Apr-10 00:33N 40°40' W 074°02'0 0.0
2014-Apr-09 23:33N 40°40' W 074°02'0 0.0
2014-Apr-09 22:33N 40°40' W 074°02'2 2.2
2014-Apr-09 21:33N 40°39' W 074°05'0 0.1
2014-Apr-09 20:33N 40°39' W 074°05'0 0.0
2014-Apr-09 19:33N 40°39' W 074°05'0 0.0
2014-Apr-09 18:33N 40°39' W 074°05'0 0.0
2014-Apr-09 17:33N 40°39' W 074°05'0 0.0
2014-Apr-09 16:33N 40°39' W 074°05'0 0.0
2014-Apr-09 15:33N 40°39' W 074°05'0 0.0
2014-Apr-09 14:33N 40°39' W 074°05'0 0.0
2014-Apr-09 13:33N 40°39' W 074°05'0 0.1
2014-Apr-09 12:33N 40°39' W 074°05'0 0.0
2014-Apr-09 11:33N 40°39' W 074°05'0 0.0
2014-Apr-09 10:33N 40°39' W 074°05'0 0.0
2014-Apr-09 09:33N 40°39' W 074°05'0 0.0
2014-Apr-09 08:33N 40°39' W 074°05'0 0.0
2014-Apr-09 07:33N 40°39' W 074°05'0 0.0
2014-Apr-09 06:33N 40°39' W 074°05'0 0.0
2014-Apr-09 05:33N 40°39' W 074°05'4 3.9
2014-Apr-09 04:33N 40°40' W 074°00'0 0.0
2014-Apr-09 03:33N 40°40' W 074°00'4 3.8
2014-Apr-09 02:33N 40°39' W 074°05'1 1.4
2014-Apr-09 01:33N 40°39' W 074°03'0 0.4
2014-Apr-09 00:33N 40°39' W 074°03'0 0.0
2014-Apr-08 23:33N 40°39' W 074°03'0 0.1
2014-Apr-08 22:33N 40°39' W 074°03'0 0.1
2014-Apr-08 21:33N 40°39' W 074°03'0 0.1
2014-Apr-08 20:34N 40°39' W 074°03'0 0.0
2014-Apr-08 19:33N 40°39' W 074°03'0 0.0
2014-Apr-08 18:33N 40°39' W 074°03'  

Dump ship's entire track history

sailing weather and tide predictions

Nanticoke — WDC4353 — position and weather